createdAt,value
2023-03-07T00:31:55.899Z,0.54
2023-03-07T00:32:55.924Z,0.53
2023-03-07T00:33:55.839Z,0.53
2023-03-07T00:34:55.833Z,0.54
2023-03-07T00:35:55.859Z,0.54
2023-03-07T00:36:55.758Z,0.55
2023-03-07T00:37:55.709Z,0.54
2023-03-07T00:38:55.716Z,0.54
2023-03-07T00:39:55.688Z,0.54
2023-03-07T00:44:55.505Z,0.54
2023-03-07T00:45:55.521Z,0.55
2023-03-07T00:46:55.441Z,0.56
2023-03-07T00:47:55.407Z,0.55
2023-03-07T00:48:55.380Z,0.56
2023-03-07T00:49:55.350Z,0.57
2023-03-07T00:50:55.313Z,0.58
2023-03-07T00:51:55.289Z,0.58
2023-03-07T00:52:55.305Z,0.58
2023-03-07T00:53:55.206Z,0.57
2023-03-07T00:54:55.191Z,0.57
2023-03-07T00:55:55.141Z,0.56
2023-03-07T00:56:55.120Z,0.56
2023-03-07T00:57:55.098Z,0.57
2023-03-07T00:58:55.088Z,0.58
2023-03-07T00:59:55.019Z,0.58
2023-03-07T01:00:55.020Z,0.59
2023-03-07T01:01:54.951Z,0.58
2023-03-07T01:02:57.259Z,0.60
2023-03-07T01:03:54.965Z,0.59
2023-03-07T01:04:54.870Z,0.59
2023-03-07T01:05:54.825Z,0.59
2023-03-07T01:06:54.791Z,0.59
2023-03-07T01:07:54.758Z,0.60
2023-03-07T01:08:54.725Z,0.60
2023-03-07T01:09:54.692Z,0.61
2023-03-07T01:10:54.660Z,0.60
2023-03-07T01:11:54.642Z,0.59
2023-03-07T01:12:54.619Z,0.60
2023-03-07T01:13:54.565Z,0.61
2023-03-07T01:14:54.553Z,0.61
2023-03-07T01:15:54.499Z,0.60
2023-03-07T01:16:54.515Z,0.60
2023-03-07T01:17:54.448Z,0.60
2023-03-07T01:18:54.436Z,0.60
2023-03-07T01:19:54.392Z,0.61
2023-03-07T01:20:54.358Z,0.62
2023-03-07T01:21:54.329Z,0.61
2023-03-07T01:22:54.303Z,0.61
2023-03-07T01:23:54.273Z,0.62
2023-03-07T01:24:54.233Z,0.63
2023-03-07T01:25:54.189Z,0.62
2023-03-07T01:26:54.174Z,0.61
2023-03-07T01:27:54.131Z,0.62
2023-03-07T01:28:54.105Z,0.62
2023-03-07T01:29:54.060Z,0.61
2023-03-07T01:30:54.053Z,0.62
2023-03-07T01:31:54.020Z,0.61
2023-03-07T01:32:53.947Z,0.62
2023-03-07T01:33:53.926Z,0.63
2023-03-07T01:34:53.887Z,0.63
2023-03-07T01:35:53.962Z,0.64
2023-03-07T01:36:53.871Z,0.61
2023-03-07T01:37:53.781Z,0.64
2023-03-07T01:38:53.753Z,0.62
2023-03-07T01:39:53.714Z,0.64
2023-03-07T01:40:53.715Z,0.64
2023-03-07T01:41:53.648Z,0.64
2023-03-07T01:42:53.624Z,0.63
2023-03-07T01:43:53.585Z,0.63
2023-03-07T01:44:53.556Z,0.62
2023-03-07T01:45:53.541Z,0.63
2023-03-07T01:46:53.490Z,0.64
2023-03-07T01:47:53.456Z,0.62
2023-03-07T01:48:53.424Z,0.62
2023-03-07T01:49:53.428Z,0.64
2023-03-07T01:50:53.365Z,0.63
2023-03-07T01:51:53.322Z,0.64
2023-03-07T01:52:53.292Z,0.64
2023-03-07T01:53:53.262Z,0.64
2023-03-07T01:54:53.239Z,0.64
2023-03-07T01:55:53.218Z,0.64
2023-03-07T04:25:48.729Z,0.65
2023-03-07T04:26:48.679Z,0.64
2023-03-07T04:27:48.699Z,0.64
2023-03-07T04:28:48.624Z,0.65
2023-03-07T04:29:48.608Z,0.64
2023-03-07T04:30:48.556Z,0.64
2023-03-07T04:31:48.636Z,0.63
2023-03-07T04:32:48.502Z,0.63
2023-03-07T04:33:48.502Z,0.64
2023-03-07T04:34:48.473Z,0.63
2023-03-07T04:35:48.467Z,0.64
2023-03-07T04:36:48.378Z,0.65
2023-03-07T04:37:48.398Z,0.65
2023-03-07T04:38:48.326Z,0.65
2023-03-07T04:39:48.291Z,0.65
2023-03-07T04:40:48.251Z,0.65
2023-03-07T04:41:48.222Z,0.65
2023-03-07T04:42:48.185Z,0.66
2023-03-07T04:43:48.160Z,0.65
2023-03-07T04:44:48.128Z,0.67
2023-03-07T04:45:48.150Z,0.67
2023-03-07T04:46:48.066Z,0.66
2023-03-07T04:47:48.055Z,0.68
2023-03-07T04:48:48.022Z,0.66
2023-03-07T04:49:47.990Z,0.68
2023-03-07T04:50:47.963Z,0.68
2023-03-07T04:51:47.931Z,0.68
2023-03-07T04:52:47.895Z,0.68
2023-03-07T04:53:47.879Z,0.69
2023-03-07T04:54:47.836Z,0.70
2023-03-07T04:55:47.806Z,0.70
2023-03-07T04:56:47.795Z,0.69
2023-03-07T04:57:47.768Z,0.70
2023-03-07T04:58:47.734Z,0.70
2023-03-07T04:59:47.698Z,0.70
2023-03-07T05:00:47.676Z,0.70
2023-03-07T05:01:47.645Z,0.70
2023-03-07T05:37:46.577Z,0.70
2023-03-07T05:38:46.601Z,0.71
2023-03-07T05:39:46.543Z,0.71
2023-03-07T05:40:46.477Z,0.69
2023-03-07T05:41:46.444Z,0.72
2023-03-07T05:42:46.443Z,0.69
2023-03-07T05:43:46.378Z,0.69
2023-03-07T05:44:46.408Z,0.68
2023-03-07T05:45:46.319Z,0.68
2023-03-07T05:46:46.297Z,0.69
2023-03-07T05:47:46.252Z,0.70
2023-03-07T05:48:46.214Z,0.70
2023-03-07T05:49:46.184Z,0.71
2023-03-07T05:50:46.159Z,0.71
2023-03-07T05:51:46.123Z,0.72
2023-03-07T05:52:46.096Z,0.73
2023-03-07T05:53:46.057Z,0.73
2023-03-07T05:54:46.022Z,0.72
2023-03-07T05:55:46.002Z,0.71
2023-03-07T05:56:45.958Z,0.72
2023-03-07T05:57:45.958Z,0.71
2023-03-07T05:58:45.907Z,0.72
2023-03-07T05:59:45.880Z,0.71
2023-03-07T06:00:45.845Z,0.70
2023-03-07T06:01:45.833Z,0.70
2023-03-07T06:02:45.889Z,0.71
2023-03-07T06:03:45.801Z,0.71
2023-03-07T06:04:45.746Z,0.70
2023-03-07T06:05:45.717Z,0.73
2023-03-07T06:06:45.685Z,0.71
2023-03-07T06:07:45.650Z,0.70
2023-03-07T06:08:45.634Z,0.74
2023-03-07T06:09:45.602Z,0.70
2023-03-07T06:10:45.568Z,0.71
2023-03-07T06:11:45.539Z,0.72
2023-03-07T06:12:45.544Z,0.72
2023-03-07T06:13:45.524Z,0.72
2023-03-07T06:14:45.451Z,0.71
2023-03-07T06:15:45.460Z,0.72
2023-03-07T06:16:45.378Z,0.72
2023-03-07T06:17:45.350Z,0.72
2023-03-07T06:18:45.375Z,0.71
2023-03-07T06:19:45.309Z,0.73
2023-03-07T06:20:45.320Z,0.71
2023-03-07T06:21:45.258Z,0.70
2023-03-07T06:22:45.218Z,0.70
2023-03-07T06:23:45.191Z,0.72
2023-03-07T06:24:45.171Z,0.74
2023-03-07T06:25:45.137Z,0.74
2023-03-07T06:26:45.099Z,0.74
2023-03-07T06:27:45.092Z,0.74
2023-03-07T06:28:45.028Z,0.74
2023-03-07T06:29:45.081Z,0.75
2023-03-07T06:30:44.956Z,0.74
2023-03-07T06:31:45.080Z,0.74
2023-03-07T06:32:44.898Z,0.75
2023-03-07T06:33:44.856Z,0.76
2023-03-07T06:34:44.822Z,0.74
2023-03-07T06:35:44.834Z,0.75
2023-03-07T06:36:44.754Z,0.78
2023-03-07T06:37:44.724Z,0.88
2023-03-07T06:38:44.722Z,1.10
2023-03-07T06:39:44.674Z,1.25
2023-03-07T06:40:44.630Z,1.40
2023-03-07T06:41:44.634Z,1.62
2023-03-07T06:42:44.573Z,1.73
2023-03-07T06:43:44.584Z,1.96
2023-03-07T06:44:44.492Z,2.39
2023-03-07T06:45:44.523Z,2.61
2023-03-07T06:46:44.435Z,2.71
2023-03-07T06:47:44.403Z,2.79
2023-03-07T06:48:44.411Z,2.89
2023-03-07T06:49:44.459Z,2.99
2023-03-07T06:50:44.321Z,3.04
2023-03-07T06:51:44.270Z,3.22
2023-03-07T06:52:44.219Z,3.23
2023-03-07T06:53:44.186Z,3.32
2023-03-07T06:54:44.151Z,3.56
2023-03-07T06:55:44.110Z,4.06
2023-03-07T06:56:45.489Z,4.99
2023-03-07T06:57:44.046Z,5.59
2023-03-07T06:58:44.004Z,5.84
2023-03-07T06:59:43.956Z,6.50
2023-03-07T07:00:43.912Z,6.97
2023-03-07T07:01:43.913Z,7.29
2023-03-07T07:02:43.961Z,7.55
2023-03-07T07:03:43.795Z,8.00
2023-03-07T07:04:43.868Z,15.77
2023-03-07T07:05:43.712Z,15.88
2023-03-07T07:06:43.643Z,16.27
2023-03-07T07:07:43.613Z,16.18
2023-03-07T07:08:43.565Z,14.97
2023-03-07T07:09:43.522Z,14.30
2023-03-07T07:10:43.493Z,13.31
2023-03-07T07:11:43.452Z,12.71
2023-03-07T07:12:43.386Z,12.22
2023-03-07T07:13:43.354Z,12.24
2023-03-07T07:14:43.315Z,12.31
2023-03-07T07:15:43.283Z,12.55
2023-03-07T07:16:43.270Z,12.26
2023-03-07T07:17:43.191Z,12.35
2023-03-07T07:18:43.155Z,12.60
2023-03-07T07:19:43.103Z,13.02
2023-03-07T07:20:43.063Z,13.18
2023-03-07T07:21:43.001Z,13.13
2023-03-07T07:22:42.964Z,13.37
2023-03-07T07:23:42.916Z,13.46
2023-03-07T07:24:42.886Z,13.70
2023-03-07T07:25:42.902Z,13.62
2023-03-07T07:26:42.784Z,13.50
2023-03-07T07:27:42.750Z,13.25
2023-03-07T07:28:42.697Z,13.89
2023-03-07T07:29:42.657Z,13.34
2023-03-07T07:30:42.610Z,15.58
2023-03-07T07:31:42.643Z,16.81
2023-03-07T07:32:42.695Z,23.83
2023-03-07T07:33:42.498Z,35.96
2023-03-07T07:34:42.445Z,37.13
2023-03-07T07:35:42.391Z,27.40
2023-03-07T07:36:42.346Z,22.67
2023-03-07T07:37:42.321Z,21.67
2023-03-07T07:38:42.277Z,21.14
2023-03-07T07:39:42.212Z,19.96
2023-03-07T07:40:42.161Z,18.94
2023-03-07T07:41:42.133Z,17.91
2023-03-07T07:42:42.139Z,18.12
2023-03-07T07:43:42.032Z,17.49
2023-03-07T07:44:42.011Z,16.57
2023-03-07T07:45:42.002Z,15.43
2023-03-07T07:46:41.950Z,16.41
2023-03-07T07:47:41.851Z,16.20
2023-03-07T07:48:41.858Z,17.51
2023-03-07T07:49:41.770Z,18.15
2023-03-07T07:50:41.713Z,18.20
2023-03-07T07:51:41.680Z,18.58
2023-03-07T07:52:41.622Z,19.42
2023-03-07T07:53:41.572Z,20.62
2023-03-07T07:54:41.622Z,21.82
2023-03-07T07:55:41.491Z,21.33
2023-03-07T07:56:41.479Z,20.88
2023-03-07T07:57:41.406Z,20.91
2023-03-07T07:58:41.386Z,20.81
2023-03-07T07:59:41.318Z,20.95
2023-03-07T08:00:41.296Z,20.53
2023-03-07T08:01:41.250Z,19.45
2023-03-07T08:02:41.245Z,19.51
2023-03-07T08:03:41.144Z,19.41
2023-03-07T08:04:41.108Z,19.29
2023-03-07T08:05:41.066Z,19.04
2023-03-07T08:06:40.982Z,19.18
2023-03-07T08:07:40.950Z,19.19
2023-03-07T08:08:40.901Z,18.73
2023-03-07T08:09:40.886Z,18.68
2023-03-07T08:10:40.823Z,18.10
2023-03-07T08:11:40.790Z,18.42
2023-03-07T08:12:40.716Z,17.04
2023-03-07T08:13:40.704Z,15.23
2023-03-07T08:14:40.718Z,14.78
2023-03-07T08:15:40.634Z,14.41
2023-03-07T08:16:40.561Z,13.82
2023-03-07T08:17:40.533Z,12.99
2023-03-07T08:18:40.472Z,12.53
2023-03-07T08:19:40.439Z,11.96
2023-03-07T08:20:40.431Z,11.46
2023-03-07T08:21:40.358Z,11.28
2023-03-07T08:22:40.332Z,10.79
2023-03-07T08:23:40.306Z,10.22
2023-03-07T08:24:41.157Z,9.43
2023-03-07T08:25:40.207Z,8.90
2023-03-07T08:26:40.164Z,8.83
2023-03-07T08:27:40.145Z,8.81
2023-03-07T08:28:40.113Z,8.77
2023-03-07T08:29:40.055Z,8.44
2023-03-07T08:30:39.992Z,8.25
2023-03-07T08:31:39.958Z,8.18
2023-03-07T08:32:39.930Z,8.03
2023-03-07T08:33:39.873Z,8.10
2023-03-07T08:34:39.804Z,7.97
2023-03-07T08:35:39.783Z,7.61
2023-03-07T08:36:39.742Z,7.16
2023-03-07T08:37:39.709Z,7.12
2023-03-07T08:38:39.675Z,7.10
2023-03-07T08:39:39.599Z,6.95
2023-03-07T08:40:39.574Z,6.86
2023-03-07T08:41:39.539Z,6.38
2023-03-07T08:42:39.580Z,6.42
2023-03-07T08:43:39.481Z,6.41
2023-03-07T08:44:39.395Z,6.40
2023-03-07T08:45:39.366Z,5.98
2023-03-07T08:46:39.330Z,5.98
2023-03-07T08:47:39.281Z,5.80
2023-03-07T08:48:39.248Z,5.70
2023-03-07T08:49:39.190Z,5.66
2023-03-07T08:50:39.135Z,5.30
2023-03-07T08:51:39.099Z,5.17
2023-03-07T08:52:39.049Z,5.02
2023-03-07T08:53:39.021Z,5.02
2023-03-07T08:54:38.984Z,5.02
2023-03-07T08:55:38.969Z,5.03
2023-03-07T08:56:38.969Z,4.86
2023-03-07T08:57:38.850Z,4.70
2023-03-07T08:58:38.814Z,4.58
2023-03-07T08:59:38.781Z,4.57
2023-03-07T09:00:38.747Z,4.38
2023-03-07T09:01:41.063Z,4.00
2023-03-07T09:02:38.744Z,3.62
2023-03-07T09:03:38.710Z,3.51
2023-03-07T09:04:38.686Z,3.63
2023-03-07T09:05:38.602Z,3.89
2023-03-07T09:06:38.614Z,3.85
2023-03-07T09:07:38.566Z,3.73
2023-03-07T09:08:38.492Z,3.80
2023-03-07T09:09:38.449Z,3.67
2023-03-07T09:10:38.433Z,3.37
2023-03-07T09:11:38.390Z,3.54
2023-03-07T09:12:38.310Z,3.65
2023-03-07T09:13:50.959Z,3.56
2023-03-07T09:14:39.243Z,3.56
2023-03-07T09:15:38.191Z,3.51
2023-03-07T09:16:38.274Z,3.53
2023-03-07T09:17:38.147Z,3.30
2023-03-07T09:18:38.042Z,3.29
2023-03-07T09:19:38.003Z,3.19
2023-03-07T09:20:37.961Z,3.14
2023-03-07T09:21:37.933Z,3.03
2023-03-07T09:22:37.883Z,2.91
2023-03-07T09:23:37.852Z,2.88
2023-03-07T09:24:37.763Z,2.47
2023-03-07T09:25:37.720Z,2.63
2023-03-07T09:26:37.755Z,2.77
2023-03-07T09:27:37.637Z,2.87
2023-03-07T09:28:37.599Z,2.91
2023-03-07T09:29:37.532Z,2.82
2023-03-07T09:30:37.520Z,2.60
2023-03-07T09:31:37.570Z,2.45
2023-03-07T09:32:37.416Z,2.39
2023-03-07T09:33:37.329Z,2.46
2023-03-07T09:34:37.298Z,2.28
2023-03-07T09:35:37.277Z,2.14
2023-03-07T09:36:37.431Z,2.16
2023-03-07T09:37:37.159Z,2.13
2023-03-07T09:38:37.107Z,2.15
2023-03-07T09:39:37.074Z,2.06
2023-03-07T09:40:37.113Z,2.04
2023-03-07T09:41:36.956Z,2.05
2023-03-07T09:42:36.918Z,1.98
2023-03-07T09:43:37.048Z,1.85
2023-03-07T09:44:36.813Z,1.77
2023-03-07T09:45:38.921Z,1.75
2023-03-07T09:46:36.907Z,1.68
2023-03-07T09:47:36.816Z,1.64
2023-03-07T09:48:36.785Z,1.97
2023-03-07T09:49:36.830Z,2.50
2023-03-07T09:50:36.649Z,2.91
2023-03-07T09:51:36.591Z,2.34
2023-03-07T09:52:36.553Z,0.34
2023-03-07T09:53:36.522Z,0.34
2023-03-07T09:54:36.489Z,0.34
2023-03-07T09:55:36.434Z,0.34
2023-03-07T09:56:36.445Z,0.34
2023-03-07T09:57:36.316Z,0.34
2023-03-07T09:58:36.288Z,0.34
2023-03-07T09:59:36.233Z,0.34
2023-03-07T10:00:36.196Z,0.34
2023-03-07T10:01:36.156Z,0.34
2023-03-07T10:02:36.125Z,0.34
2023-03-07T10:03:36.167Z,0.34
2023-03-07T10:04:36.112Z,0.34
2023-03-07T10:05:36.029Z,0.34
2023-03-07T10:06:36.075Z,0.34
2023-03-07T10:07:35.999Z,0.34
2023-03-07T10:08:35.966Z,0.34
2023-03-07T10:09:35.965Z,0.34
2023-03-07T10:10:35.898Z,0.34
2023-03-07T10:11:35.872Z,0.34
2023-03-07T10:12:35.866Z,0.34
2023-03-07T10:13:35.836Z,0.34
2023-03-07T10:14:35.880Z,0.34
2023-03-07T10:15:35.861Z,0.34
2023-03-07T10:16:36.040Z,0.34
2023-03-07T10:17:35.741Z,0.34
2023-03-07T10:18:35.721Z,0.34
2023-03-07T10:19:35.738Z,0.34
2023-03-07T10:20:35.649Z,0.34
2023-03-07T10:21:35.589Z,0.43
2023-03-07T10:22:35.541Z,0.68
2023-03-07T10:23:35.543Z,0.69
2023-03-07T10:24:37.071Z,0.75
2023-03-07T10:25:35.444Z,0.96
2023-03-07T10:26:35.520Z,1.63
2023-03-07T10:27:35.357Z,3.96
2023-03-07T10:28:35.323Z,6.80
2023-03-07T10:29:35.259Z,9.75
2023-03-07T10:30:35.295Z,13.68
2023-03-07T10:31:35.246Z,17.97
2023-03-07T10:32:35.279Z,22.96
2023-03-07T10:33:35.114Z,26.87
2023-03-07T10:34:35.069Z,31.64
2023-03-07T10:35:35.056Z,36.50
2023-03-07T10:36:35.066Z,42.11
2023-03-07T10:37:34.925Z,45.28
2023-03-07T10:38:34.961Z,51.14
2023-03-07T10:39:34.839Z,56.48
2023-03-07T10:40:34.792Z,59.72
2023-03-07T10:41:34.797Z,66.73
2023-03-07T10:42:34.718Z,70.31
2023-03-07T10:43:34.666Z,70.90
2023-03-07T10:44:34.614Z,74.52
2023-03-07T10:45:34.631Z,78.37
2023-03-07T10:46:36.521Z,82.28
2023-03-07T10:47:34.485Z,52.20
2023-03-07T10:48:34.464Z,29.13
2023-03-07T10:49:34.412Z,13.41
2023-03-07T10:50:34.355Z,7.79
2023-03-07T10:51:34.310Z,6.23
2023-03-07T10:52:34.276Z,4.61
2023-03-07T10:53:34.249Z,3.84
2023-03-07T10:54:34.200Z,3.19
2023-03-07T10:55:34.154Z,2.75
2023-03-07T10:56:34.158Z,2.97
2023-03-07T10:57:34.104Z,2.54
2023-03-07T10:58:34.060Z,1.86
2023-03-07T10:59:34.014Z,1.63
2023-03-07T11:00:33.966Z,1.44
2023-03-07T11:01:33.969Z,1.45
2023-03-07T11:02:33.872Z,1.38
2023-03-07T11:03:49.770Z,1.10
2023-03-07T11:04:34.836Z,0.99
2023-03-07T11:05:33.767Z,0.94
2023-03-07T11:06:33.879Z,0.77
2023-03-07T11:07:33.714Z,0.65
2023-03-07T11:08:33.674Z,0.63
2023-03-07T11:09:33.655Z,0.58
2023-03-07T11:10:33.647Z,0.53
2023-03-07T11:11:33.550Z,0.54
2023-03-07T11:12:33.510Z,0.53
2023-03-07T11:13:33.478Z,0.50
2023-03-07T11:14:33.478Z,0.52
2023-03-07T11:15:33.435Z,0.48
2023-03-07T11:16:33.484Z,0.50
2023-03-07T11:17:33.376Z,0.58
2023-03-07T11:18:33.314Z,0.63
2023-03-07T11:19:33.388Z,0.67
2023-03-07T11:20:33.351Z,0.64
2023-03-07T11:21:33.514Z,0.65
2023-03-07T11:22:33.455Z,0.75
2023-03-07T11:23:33.127Z,1.09
2023-03-07T11:24:33.116Z,1.57
2023-03-07T11:25:33.067Z,2.15
2023-03-07T11:26:33.069Z,2.66
2023-03-07T11:27:32.993Z,3.58
2023-03-07T11:28:33.100Z,4.45
2023-03-07T11:29:32.892Z,5.57
2023-03-07T11:30:32.861Z,7.09
2023-03-07T11:31:32.796Z,7.13
2023-03-07T11:32:32.973Z,7.17
2023-03-07T11:33:32.727Z,7.63
2023-03-07T11:34:32.668Z,8.88
2023-03-07T11:35:32.653Z,11.68
2023-03-07T11:36:32.607Z,18.52
2023-03-07T11:37:32.533Z,23.22
2023-03-07T11:38:32.507Z,29.24
2023-03-07T11:39:32.641Z,35.89
2023-03-07T13:14:28.051Z,93.64
2023-03-07T13:15:27.997Z,93.46
2023-03-07T13:16:28.006Z,90.93
2023-03-07T13:17:27.878Z,89.33
2023-03-07T13:18:27.839Z,88.72
2023-03-07T13:19:27.783Z,86.56
2023-03-07T13:20:27.746Z,86.60
2023-03-07T13:21:27.700Z,79.02
2023-03-07T13:22:27.636Z,81.23
2023-03-07T13:23:27.606Z,80.85
2023-03-07T13:24:27.541Z,79.20
2023-03-07T13:25:27.900Z,76.11
2023-03-07T13:26:27.439Z,78.22
2023-03-07T13:27:27.388Z,76.92
2023-03-07T13:28:27.352Z,73.87
2023-03-07T13:29:27.315Z,75.09
2023-03-07T13:30:27.303Z,76.24
2023-03-07T13:31:27.218Z,74.61
2023-03-07T13:32:27.194Z,74.61
2023-03-07T13:33:27.130Z,73.36
2023-03-07T13:34:27.045Z,75.80
2023-03-07T13:35:26.998Z,74.92
2023-03-07T13:36:26.923Z,74.62
2023-03-07T13:37:26.900Z,71.46
2023-03-07T13:38:26.924Z,73.20
2023-03-07T13:39:26.786Z,71.76
2023-03-07T13:40:26.718Z,73.50
2023-03-07T13:41:26.657Z,69.72
2023-03-07T13:42:26.594Z,69.78
2023-03-07T13:43:28.275Z,70.24
2023-03-07T13:44:26.502Z,70.29
2023-03-07T13:45:26.463Z,69.18
2023-03-07T13:46:26.439Z,70.38
2023-03-07T13:47:26.365Z,71.80
2023-03-07T13:48:26.290Z,70.60
2023-03-07T13:49:26.592Z,71.47
2023-03-07T13:50:26.191Z,71.21
2023-03-07T13:51:26.560Z,69.93
2023-03-07T13:52:26.091Z,68.92
2023-03-07T13:53:26.023Z,70.17
2023-03-07T13:54:25.997Z,68.63
2023-03-07T13:55:25.922Z,70.61
2023-03-07T13:56:25.865Z,70.83
2023-03-07T13:57:27.879Z,70.79
2023-03-07T13:58:25.757Z,69.69
2023-03-07T13:59:25.707Z,68.21
2023-03-07T14:00:25.660Z,66.87
2023-03-07T14:01:25.689Z,66.85
2023-03-07T14:02:25.538Z,66.52
2023-03-07T14:03:27.604Z,64.56
2023-03-07T14:04:38.894Z,64.57
2023-03-07T14:05:26.429Z,64.66
2023-03-07T14:06:25.361Z,65.17
2023-03-07T14:07:25.298Z,65.27
2023-03-07T14:08:25.234Z,63.82
2023-03-07T14:09:25.208Z,61.92
2023-03-07T14:10:25.224Z,64.59
2023-03-07T14:11:25.538Z,64.14
2023-03-07T14:12:25.082Z,59.40
2023-03-07T14:13:25.038Z,56.94
2023-03-07T14:14:25.025Z,52.78
2023-03-07T14:15:24.941Z,53.68
2023-03-07T14:16:24.912Z,54.21
2023-03-07T14:17:24.809Z,53.85
2023-03-07T14:18:24.770Z,50.60
2023-03-07T14:19:24.709Z,45.38
2023-03-07T14:20:24.677Z,39.81
2023-03-07T14:21:24.620Z,38.77
2023-03-07T14:22:24.584Z,38.73
2023-03-07T14:23:24.516Z,36.83
2023-03-07T14:24:24.475Z,34.98
2023-03-07T14:25:24.498Z,31.38
2023-03-07T14:26:24.420Z,30.21
2023-03-07T14:27:24.319Z,29.55
2023-03-07T14:28:24.294Z,29.60
2023-03-07T14:29:24.229Z,29.85
2023-03-07T14:30:24.175Z,29.25
2023-03-07T14:31:24.216Z,28.26
2023-03-07T14:32:24.157Z,28.76
2023-03-07T14:33:24.064Z,30.30
2023-03-07T14:34:23.988Z,29.06
2023-03-07T14:35:23.925Z,27.54
2023-03-07T14:36:23.892Z,27.13
2023-03-07T14:37:23.866Z,25.38
2023-03-07T14:38:23.794Z,25.83
2023-03-07T14:39:23.784Z,26.29
2023-03-07T14:40:23.691Z,26.44
2023-03-07T14:41:23.657Z,25.82
2023-03-07T14:42:23.597Z,25.37
2023-03-07T14:43:23.568Z,25.07
2023-03-07T14:44:23.503Z,24.62
2023-03-07T14:45:23.466Z,25.41
2023-03-07T14:46:23.494Z,23.19
2023-03-07T14:47:23.379Z,23.00
2023-03-07T14:48:23.336Z,24.76
2023-03-07T14:49:23.264Z,23.27
2023-03-07T14:50:23.217Z,23.86
2023-03-07T14:51:23.160Z,22.61
2023-03-07T14:52:30.966Z,22.31
2023-03-07T14:53:24.072Z,22.33
2023-03-07T14:54:23.011Z,22.34
2023-03-07T14:55:22.960Z,22.51
2023-03-07T14:56:22.933Z,23.17
2023-03-07T14:57:22.879Z,22.82
2023-03-07T14:58:22.830Z,22.40
2023-03-07T14:59:29.105Z,22.29
2023-03-07T15:00:23.754Z,22.27
2023-03-07T15:01:22.759Z,22.32
2023-03-07T15:02:22.658Z,22.35
2023-03-07T15:03:22.602Z,21.96
2023-03-07T15:04:22.608Z,22.32
2023-03-07T15:05:22.535Z,22.04
2023-03-07T15:06:22.481Z,21.88
2023-03-07T15:07:22.471Z,20.46
2023-03-07T15:08:22.391Z,20.16
2023-03-07T15:09:22.326Z,19.69
2023-03-07T15:10:22.285Z,19.41
2023-03-07T15:11:22.230Z,19.53
2023-03-07T15:12:22.196Z,19.51
2023-03-07T15:13:22.135Z,18.61
2023-03-07T15:14:22.085Z,18.30
2023-03-07T15:15:22.037Z,18.90
2023-03-07T15:16:22.018Z,18.48
2023-03-07T15:17:21.962Z,18.29
2023-03-07T15:18:21.886Z,17.77
2023-03-07T15:19:21.848Z,17.58
2023-03-07T15:20:21.807Z,17.97
2023-03-07T15:21:21.735Z,17.34
2023-03-07T15:22:21.712Z,17.28
2023-03-07T15:23:21.645Z,16.55
2023-03-07T15:24:21.609Z,16.45
2023-03-07T15:25:23.372Z,16.26
2023-03-07T15:26:21.522Z,16.28
2023-03-07T15:27:21.480Z,16.30
2023-03-07T15:28:21.394Z,16.32
2023-03-07T15:29:21.362Z,16.63
2023-03-07T15:30:21.303Z,16.39
2023-03-07T15:31:21.324Z,16.43
2023-03-07T15:32:21.250Z,16.19
2023-03-07T15:33:21.192Z,15.68
2023-03-07T15:34:21.135Z,15.90
2023-03-07T15:35:21.112Z,15.93
2023-03-07T15:36:21.046Z,15.87
2023-03-07T15:37:21.014Z,15.56
2023-03-07T16:36:18.450Z,10.95
2023-03-07T16:37:18.418Z,11.11
2023-03-07T16:38:18.376Z,11.12
2023-03-07T16:39:18.364Z,10.83
2023-03-07T16:40:18.295Z,10.99
2023-03-07T16:41:18.272Z,10.97
2023-03-07T16:42:18.216Z,10.66
2023-03-07T16:43:18.182Z,11.10
2023-03-07T16:44:18.136Z,10.95
2023-03-07T16:45:18.105Z,11.05
2023-03-07T16:46:18.185Z,11.04
2023-03-07T16:47:18.015Z,10.83
2023-03-07T16:48:17.994Z,10.83
2023-03-07T16:49:17.962Z,10.94
2023-03-07T16:50:17.926Z,10.60
2023-03-07T16:51:17.882Z,10.65
2023-03-07T16:52:17.823Z,10.63
2023-03-07T16:53:17.793Z,10.65
2023-03-07T16:54:17.723Z,10.57
2023-03-07T16:55:17.690Z,10.38
2023-03-07T16:56:17.792Z,10.16
2023-03-07T16:57:17.613Z,10.16
2023-03-07T16:58:17.570Z,10.02
2023-03-07T16:59:17.539Z,9.98
2023-03-07T17:00:17.545Z,9.73
2023-03-07T17:01:17.496Z,9.69
2023-03-07T17:02:17.412Z,9.94
2023-03-07T17:03:17.362Z,9.83
2023-03-07T17:04:17.321Z,9.58
2023-03-07T17:05:17.297Z,9.83
2023-03-07T17:06:17.239Z,9.63
2023-03-07T17:07:17.216Z,9.92
2023-03-07T17:08:17.166Z,9.92
2023-03-07T17:09:17.131Z,9.94
2023-03-07T17:10:17.069Z,9.72
2023-03-07T17:11:17.041Z,9.64
2023-03-07T17:12:17.002Z,9.73
2023-03-07T17:13:16.964Z,10.05
2023-03-07T17:14:16.940Z,9.82
2023-03-07T17:15:16.894Z,9.96
2023-03-07T17:16:16.910Z,9.50
2023-03-07T17:17:16.827Z,9.39
2023-03-07T17:18:16.780Z,9.47
2023-03-07T17:19:16.741Z,9.35
2023-03-07T17:20:16.701Z,9.54
2023-03-07T17:21:16.664Z,9.35
2023-03-07T17:22:18.790Z,9.36
2023-03-07T17:23:16.608Z,9.43
2023-03-07T17:24:16.549Z,9.25
2023-03-07T17:25:16.516Z,9.50
2023-03-07T17:26:16.488Z,9.50
2023-03-07T17:27:16.494Z,9.18
2023-03-07T17:28:18.114Z,9.23
2023-03-07T17:29:16.385Z,9.24
2023-03-07T17:30:16.347Z,9.14
2023-03-07T17:31:16.376Z,8.87
2023-03-07T17:32:16.290Z,9.09
2023-03-07T17:33:16.221Z,9.32
2023-03-07T17:34:16.199Z,9.23
2023-03-07T17:35:16.165Z,9.34
2023-03-07T17:36:16.123Z,9.34
2023-03-07T17:37:16.092Z,9.23
2023-03-07T17:38:16.054Z,9.05
2023-03-07T17:39:16.019Z,8.99
2023-03-07T17:40:15.999Z,9.15
2023-03-07T17:41:15.966Z,8.81
2023-03-07T17:42:15.918Z,8.49
2023-03-07T17:43:15.892Z,8.54
2023-03-07T17:44:17.911Z,8.66
2023-03-07T17:45:15.792Z,8.70
2023-03-07T17:46:15.828Z,8.69
2023-03-07T17:47:15.727Z,8.70
2023-03-07T17:48:15.681Z,8.56
2023-03-07T17:49:15.663Z,8.75
2023-03-07T17:50:15.614Z,8.76
2023-03-07T17:51:15.571Z,8.76
2023-03-07T17:52:15.529Z,8.88
2023-03-07T17:53:15.494Z,8.85
2023-03-07T17:54:15.486Z,8.79
2023-03-07T17:55:15.438Z,8.85
2023-03-07T17:56:15.412Z,9.11
2023-03-07T17:57:15.370Z,8.83
2023-03-07T17:58:15.319Z,8.71
2023-03-07T17:59:15.283Z,8.89
2023-03-07T18:00:15.253Z,8.88
2023-03-07T18:01:15.267Z,8.87
2023-03-07T18:02:15.184Z,8.80
2023-03-07T18:03:15.168Z,8.64
2023-03-07T18:04:15.116Z,8.50
2023-03-07T18:05:15.095Z,8.50
2023-03-07T18:06:15.071Z,8.51
2023-03-07T18:07:15.010Z,8.64
2023-03-07T18:08:15.014Z,8.68
2023-03-07T18:09:14.949Z,8.85
2023-03-07T18:10:14.937Z,8.98
2023-03-07T18:11:14.879Z,8.96
2023-03-07T18:12:14.853Z,9.05
2023-03-07T18:13:14.809Z,9.30
2023-03-07T18:14:14.770Z,9.16
2023-03-07T18:15:14.783Z,8.99
2023-03-07T18:16:14.735Z,9.35
2023-03-07T18:17:14.684Z,9.28
2023-03-07T18:18:14.638Z,9.15
2023-03-07T18:19:25.656Z,9.14
2023-03-07T18:20:15.644Z,9.08
2023-03-07T18:21:14.589Z,9.17
2023-03-07T18:22:14.510Z,9.21
2023-03-07T18:23:14.494Z,9.26
2023-03-07T18:24:14.433Z,9.40
2023-03-07T18:25:14.405Z,9.10
2023-03-07T18:26:14.437Z,9.27
2023-03-07T18:27:14.339Z,9.05
2023-03-07T18:28:14.306Z,8.69
2023-03-07T18:29:14.267Z,8.79
2023-03-07T18:30:14.312Z,8.85
2023-03-07T18:31:14.332Z,9.09
2023-03-07T18:32:14.256Z,8.87
2023-03-07T18:33:14.179Z,8.99
2023-03-07T18:34:14.113Z,9.15
2023-03-07T18:35:14.070Z,9.17
2023-03-07T18:36:14.051Z,8.93
2023-03-07T18:37:14.009Z,9.06
2023-03-07T18:38:13.978Z,8.87
2023-03-07T18:39:13.972Z,8.90
2023-03-07T18:40:14.006Z,9.28
2023-03-07T18:41:13.900Z,9.37
2023-03-07T18:42:13.853Z,9.41
2023-03-07T18:43:13.915Z,9.37
2023-03-07T18:44:13.787Z,9.41
2023-03-07T18:45:13.962Z,9.14
2023-03-07T18:46:13.827Z,9.01
2023-03-07T18:47:13.693Z,8.81
2023-03-07T18:48:13.684Z,8.75
2023-03-07T18:49:13.649Z,8.82
2023-03-07T18:50:13.654Z,8.64
2023-03-07T18:51:13.576Z,8.89
2023-03-07T18:52:13.562Z,8.52
2023-03-07T18:53:13.518Z,8.55
2023-03-07T18:54:13.491Z,8.57
2023-03-07T18:55:13.469Z,8.85
2023-03-07T18:56:13.462Z,9.03
2023-03-07T18:57:13.400Z,8.66
2023-03-07T18:58:15.448Z,8.65
2023-03-07T18:59:13.358Z,8.49
2023-03-07T19:00:13.380Z,8.50
2023-03-07T19:01:13.340Z,8.55
2023-03-07T19:02:13.308Z,8.58
2023-03-07T19:03:13.216Z,8.54
2023-03-07T19:04:13.206Z,8.51
2023-03-07T19:05:13.220Z,8.48
2023-03-07T20:15:10.691Z,8.03
2023-03-07T20:16:10.782Z,7.93
2023-03-07T20:17:10.626Z,7.93
2023-03-07T20:18:10.576Z,7.99
2023-03-07T20:19:10.603Z,7.88
2023-03-07T20:20:10.524Z,8.03
2023-03-07T20:21:10.502Z,8.07
2023-03-07T20:22:10.458Z,7.58
2023-03-07T20:23:10.385Z,7.71
2023-03-07T20:24:10.356Z,7.75
2023-03-07T20:25:10.313Z,7.75
2023-03-07T20:26:10.290Z,7.67
2023-03-07T20:27:10.233Z,7.58
2023-03-07T20:28:10.183Z,7.62
2023-03-07T20:29:10.139Z,7.67